sensor_id;sensor_type;location;lat;lon;timestamp;P1;durP1;ratioP1;P2;durP2;ratioP2
16822;SDS011;8528;49.976;11.858;2023-11-18T00:01:51;5.63;;;3.43;;
16822;SDS011;8528;49.976;11.858;2023-11-18T00:04:18;4.37;;;3.33;;
16822;SDS011;8528;49.976;11.858;2023-11-18T00:06:45;5.13;;;3.73;;
16822;SDS011;8528;49.976;11.858;2023-11-18T00:09:12;3.77;;;3.20;;
16822;SDS011;8528;49.976;11.858;2023-11-18T00:11:40;5.13;;;3.10;;
16822;SDS011;8528;49.976;11.858;2023-11-18T00:14:09;4.30;;;2.77;;
16822;SDS011;8528;49.976;11.858;2023-11-18T00:16:40;3.50;;;2.97;;
16822;SDS011;8528;49.976;11.858;2023-11-18T00:19:07;5.93;;;2.90;;
16822;SDS011;8528;49.976;11.858;2023-11-18T00:21:35;4.77;;;2.77;;
16822;SDS011;8528;49.976;11.858;2023-11-18T00:24:03;3.00;;;2.67;;
16822;SDS011;8528;49.976;11.858;2023-11-18T00:26:31;3.47;;;2.70;;
16822;SDS011;8528;49.976;11.858;2023-11-18T00:28:58;3.63;;;2.83;;
16822;SDS011;8528;49.976;11.858;2023-11-18T00:31:27;4.47;;;2.77;;
16822;SDS011;8528;49.976;11.858;2023-11-18T00:33:54;4.63;;;3.00;;
16822;SDS011;8528;49.976;11.858;2023-11-18T00:36:20;3.33;;;3.00;;
16822;SDS011;8528;49.976;11.858;2023-11-18T00:38:47;6.47;;;3.33;;
16822;SDS011;8528;49.976;11.858;2023-11-18T00:41:15;4.73;;;3.70;;
16822;SDS011;8528;49.976;11.858;2023-11-18T00:43:43;4.03;;;3.20;;
16822;SDS011;8528;49.976;11.858;2023-11-18T00:46:10;4.57;;;3.27;;
16822;SDS011;8528;49.976;11.858;2023-11-18T00:48:37;6.63;;;3.40;;
16822;SDS011;8528;49.976;11.858;2023-11-18T00:51:08;4.57;;;3.40;;
16822;SDS011;8528;49.976;11.858;2023-11-18T00:53:34;3.97;;;2.90;;
16822;SDS011;8528;49.976;11.858;2023-11-18T00:56:02;3.83;;;3.47;;
16822;SDS011;8528;49.976;11.858;2023-11-18T00:58:34;4.70;;;3.90;;
16822;SDS011;8528;49.976;11.858;2023-11-18T01:01:05;5.63;;;3.80;;
16822;SDS011;8528;49.976;11.858;2023-11-18T01:03:33;4.47;;;3.37;;
16822;SDS011;8528;49.976;11.858;2023-11-18T01:06:00;4.27;;;3.23;;
16822;SDS011;8528;49.976;11.858;2023-11-18T01:08:27;3.73;;;3.30;;
16822;SDS011;8528;49.976;11.858;2023-11-18T01:10:54;3.80;;;3.20;;
16822;SDS011;8528;49.976;11.858;2023-11-18T01:13:21;6.30;;;3.07;;
16822;SDS011;8528;49.976;11.858;2023-11-18T01:15:48;4.57;;;2.87;;
16822;SDS011;8528;49.976;11.858;2023-11-18T01:18:15;4.70;;;2.90;;
16822;SDS011;8528;49.976;11.858;2023-11-18T01:20:44;4.27;;;2.60;;
16822;SDS011;8528;49.976;11.858;2023-11-18T01:23:10;4.53;;;3.17;;
16822;SDS011;8528;49.976;11.858;2023-11-18T01:25:37;3.73;;;2.73;;
16822;SDS011;8528;49.976;11.858;2023-11-18T01:28:06;4.00;;;3.10;;
16822;SDS011;8528;49.976;11.858;2023-11-18T01:30:33;6.17;;;2.80;;
16822;SDS011;8528;49.976;11.858;2023-11-18T01:33:00;7.10;;;3.33;;
16822;SDS011;8528;49.976;11.858;2023-11-18T01:35:27;7.03;;;3.87;;
16822;SDS011;8528;49.976;11.858;2023-11-18T01:37:54;5.37;;;3.73;;
16822;SDS011;8528;49.976;11.858;2023-11-18T01:40:21;8.87;;;3.70;;
16822;SDS011;8528;49.976;11.858;2023-11-18T01:42:48;4.20;;;3.50;;
16822;SDS011;8528;49.976;11.858;2023-11-18T01:45:16;4.10;;;3.40;;
16822;SDS011;8528;49.976;11.858;2023-11-18T01:47:43;4.60;;;3.37;;
16822;SDS011;8528;49.976;11.858;2023-11-18T01:50:11;4.70;;;3.03;;
16822;SDS011;8528;49.976;11.858;2023-11-18T01:52:41;6.40;;;3.50;;
16822;SDS011;8528;49.976;11.858;2023-11-18T01:55:12;7.33;;;3.10;;
16822;SDS011;8528;49.976;11.858;2023-11-18T01:57:39;3.53;;;3.00;;
16822;SDS011;8528;49.976;11.858;2023-11-18T02:00:11;5.87;;;3.10;;
16822;SDS011;8528;49.976;11.858;2023-11-18T02:02:38;4.00;;;2.80;;
16822;SDS011;8528;49.976;11.858;2023-11-18T02:05:06;5.73;;;3.17;;
16822;SDS011;8528;49.976;11.858;2023-11-18T02:07:34;3.83;;;3.00;;
16822;SDS011;8528;49.976;11.858;2023-11-18T02:10:04;4.30;;;2.80;;
16822;SDS011;8528;49.976;11.858;2023-11-18T02:15:14;4.63;;;3.20;;
16822;SDS011;8528;49.976;11.858;2023-11-18T02:17:44;3.60;;;2.70;;
16822;SDS011;8528;49.976;11.858;2023-11-18T02:20:12;5.03;;;3.57;;
16822;SDS011;8528;49.976;11.858;2023-11-18T02:22:43;4.53;;;3.63;;
16822;SDS011;8528;49.976;11.858;2023-11-18T02:25:16;3.33;;;3.00;;
16822;SDS011;8528;49.976;11.858;2023-11-18T02:27:45;5.43;;;3.00;;
16822;SDS011;8528;49.976;11.858;2023-11-18T02:30:12;4.07;;;3.30;;
16822;SDS011;8528;49.976;11.858;2023-11-18T02:35:36;6.13;;;4.27;;
16822;SDS011;8528;49.976;11.858;2023-11-18T02:38:07;4.83;;;3.67;;
16822;SDS011;8528;49.976;11.858;2023-11-18T02:40:37;6.27;;;3.70;;
16822;SDS011;8528;49.976;11.858;2023-11-18T02:43:11;6.23;;;3.60;;
16822;SDS011;8528;49.976;11.858;2023-11-18T02:45:37;5.73;;;3.80;;
16822;SDS011;8528;49.976;11.858;2023-11-18T02:48:06;5.63;;;3.47;;
16822;SDS011;8528;49.976;11.858;2023-11-18T02:50:33;5.90;;;3.53;;
16822;SDS011;8528;49.976;11.858;2023-11-18T02:53:02;5.93;;;3.13;;
16822;SDS011;8528;49.976;11.858;2023-11-18T02:55:29;5.50;;;3.50;;
16822;SDS011;8528;49.976;11.858;2023-11-18T02:57:56;5.53;;;3.17;;
16822;SDS011;8528;49.976;11.858;2023-11-18T03:00:24;4.87;;;3.10;;
16822;SDS011;8528;49.976;11.858;2023-11-18T03:02:51;4.47;;;3.20;;
16822;SDS011;8528;49.976;11.858;2023-11-18T03:05:19;4.53;;;3.57;;
16822;SDS011;8528;49.976;11.858;2023-11-18T03:07:47;4.37;;;2.87;;
16822;SDS011;8528;49.976;11.858;2023-11-18T03:10:20;5.43;;;3.37;;
16822;SDS011;8528;49.976;11.858;2023-11-18T03:12:48;5.00;;;3.70;;
16822;SDS011;8528;49.976;11.858;2023-11-18T03:15:16;4.80;;;3.23;;
16822;SDS011;8528;49.976;11.858;2023-11-18T03:17:44;4.07;;;3.30;;
16822;SDS011;8528;49.976;11.858;2023-11-18T03:20:16;4.77;;;3.23;;
16822;SDS011;8528;49.976;11.858;2023-11-18T03:22:44;5.67;;;3.40;;
16822;SDS011;8528;49.976;11.858;2023-11-18T03:25:12;5.03;;;3.53;;
16822;SDS011;8528;49.976;11.858;2023-11-18T03:27:40;5.53;;;3.53;;
16822;SDS011;8528;49.976;11.858;2023-11-18T03:30:07;7.47;;;3.30;;
16822;SDS011;8528;49.976;11.858;2023-11-18T03:32:35;4.90;;;3.33;;
16822;SDS011;8528;49.976;11.858;2023-11-18T03:35:04;4.20;;;3.33;;
16822;SDS011;8528;49.976;11.858;2023-11-18T03:37:36;5.40;;;3.37;;
16822;SDS011;8528;49.976;11.858;2023-11-18T03:40:11;4.93;;;3.17;;
16822;SDS011;8528;49.976;11.858;2023-11-18T03:42:39;5.77;;;3.20;;
16822;SDS011;8528;49.976;11.858;2023-11-18T03:45:07;3.10;;;2.80;;
16822;SDS011;8528;49.976;11.858;2023-11-18T03:47:35;7.57;;;3.50;;
16822;SDS011;8528;49.976;11.858;2023-11-18T03:50:02;4.80;;;3.40;;
16822;SDS011;8528;49.976;11.858;2023-11-18T03:52:30;3.37;;;2.63;;
16822;SDS011;8528;49.976;11.858;2023-11-18T03:54:56;6.10;;;3.27;;
16822;SDS011;8528;49.976;11.858;2023-11-18T03:57:24;6.90;;;3.23;;
16822;SDS011;8528;49.976;11.858;2023-11-18T03:59:50;3.73;;;3.23;;
16822;SDS011;8528;49.976;11.858;2023-11-18T04:02:18;7.03;;;3.10;;
16822;SDS011;8528;49.976;11.858;2023-11-18T04:04:45;3.83;;;2.90;;
16822;SDS011;8528;49.976;11.858;2023-11-18T04:07:12;3.67;;;3.03;;
16822;SDS011;8528;49.976;11.858;2023-11-18T04:09:39;4.87;;;3.33;;
16822;SDS011;8528;49.976;11.858;2023-11-18T04:12:07;6.07;;;3.57;;
16822;SDS011;8528;49.976;11.858;2023-11-18T04:14:36;5.53;;;3.27;;
16822;SDS011;8528;49.976;11.858;2023-11-18T04:17:03;5.40;;;3.47;;
16822;SDS011;8528;49.976;11.858;2023-11-18T04:19:30;6.57;;;3.57;;
16822;SDS011;8528;49.976;11.858;2023-11-18T04:21:57;3.67;;;3.20;;
16822;SDS011;8528;49.976;11.858;2023-11-18T04:24:24;4.87;;;3.00;;
16822;SDS011;8528;49.976;11.858;2023-11-18T04:26:51;3.30;;;3.00;;
16822;SDS011;8528;49.976;11.858;2023-11-18T04:29:18;4.83;;;3.20;;
16822;SDS011;8528;49.976;11.858;2023-11-18T04:31:44;4.37;;;3.03;;
16822;SDS011;8528;49.976;11.858;2023-11-18T04:34:12;4.47;;;2.83;;
16822;SDS011;8528;49.976;11.858;2023-11-18T04:36:41;4.10;;;3.10;;
16822;SDS011;8528;49.976;11.858;2023-11-18T04:39:08;6.03;;;3.43;;
16822;SDS011;8528;49.976;11.858;2023-11-18T04:41:38;5.00;;;3.20;;
16822;SDS011;8528;49.976;11.858;2023-11-18T04:44:05;5.93;;;3.50;;
16822;SDS011;8528;49.976;11.858;2023-11-18T04:46:32;7.17;;;3.67;;
16822;SDS011;8528;49.976;11.858;2023-11-18T04:48:59;3.97;;;3.00;;
16822;SDS011;8528;49.976;11.858;2023-11-18T04:51:28;4.13;;;3.40;;
16822;SDS011;8528;49.976;11.858;2023-11-18T04:53:55;5.37;;;3.30;;
16822;SDS011;8528;49.976;11.858;2023-11-18T04:56:22;6.10;;;3.63;;
16822;SDS011;8528;49.976;11.858;2023-11-18T04:58:48;5.47;;;3.30;;
16822;SDS011;8528;49.976;11.858;2023-11-18T05:01:15;5.20;;;3.60;;
16822;SDS011;8528;49.976;11.858;2023-11-18T05:03:42;5.33;;;3.97;;
16822;SDS011;8528;49.976;11.858;2023-11-18T05:06:09;4.77;;;3.77;;
16822;SDS011;8528;49.976;11.858;2023-11-18T05:08:36;5.13;;;3.30;;
16822;SDS011;8528;49.976;11.858;2023-11-18T05:11:03;4.27;;;3.50;;
16822;SDS011;8528;49.976;11.858;2023-11-18T05:13:31;6.93;;;3.60;;
16822;SDS011;8528;49.976;11.858;2023-11-18T05:16:00;4.40;;;3.37;;
16822;SDS011;8528;49.976;11.858;2023-11-18T05:18:27;5.53;;;3.70;;
16822;SDS011;8528;49.976;11.858;2023-11-18T05:20:59;5.83;;;3.47;;
16822;SDS011;8528;49.976;11.858;2023-11-18T05:23:26;5.80;;;3.30;;
16822;SDS011;8528;49.976;11.858;2023-11-18T05:25:55;3.67;;;3.00;;
16822;SDS011;8528;49.976;11.858;2023-11-18T05:28:22;5.37;;;3.67;;
16822;SDS011;8528;49.976;11.858;2023-11-18T05:30:50;4.43;;;3.30;;
16822;SDS011;8528;49.976;11.858;2023-11-18T05:33:17;3.80;;;3.40;;
16822;SDS011;8528;49.976;11.858;2023-11-18T05:35:45;6.63;;;3.60;;
16822;SDS011;8528;49.976;11.858;2023-11-18T05:38:16;5.67;;;4.10;;
16822;SDS011;8528;49.976;11.858;2023-11-18T05:40:45;7.37;;;4.30;;
16822;SDS011;8528;49.976;11.858;2023-11-18T05:43:28;5.70;;;3.73;;
16822;SDS011;8528;49.976;11.858;2023-11-18T05:46:07;5.37;;;3.57;;
16822;SDS011;8528;49.976;11.858;2023-11-18T05:48:48;4.63;;;3.40;;
16822;SDS011;8528;49.976;11.858;2023-11-18T05:51:20;8.27;;;3.37;;
16822;SDS011;8528;49.976;11.858;2023-11-18T05:53:48;5.30;;;3.10;;
16822;SDS011;8528;49.976;11.858;2023-11-18T05:56:15;6.70;;;4.30;;
16822;SDS011;8528;49.976;11.858;2023-11-18T05:58:45;4.93;;;3.07;;
16822;SDS011;8528;49.976;11.858;2023-11-18T06:01:12;3.50;;;3.20;;
16822;SDS011;8528;49.976;11.858;2023-11-18T06:03:41;4.77;;;3.20;;
16822;SDS011;8528;49.976;11.858;2023-11-18T06:06:09;5.23;;;3.70;;
16822;SDS011;8528;49.976;11.858;2023-11-18T06:08:37;5.07;;;3.60;;
16822;SDS011;8528;49.976;11.858;2023-11-18T06:11:09;6.10;;;3.33;;
16822;SDS011;8528;49.976;11.858;2023-11-18T06:13:43;3.70;;;3.10;;
16822;SDS011;8528;49.976;11.858;2023-11-18T06:16:15;6.63;;;3.30;;
16822;SDS011;8528;49.976;11.858;2023-11-18T06:18:47;4.93;;;3.30;;
16822;SDS011;8528;49.976;11.858;2023-11-18T06:21:19;6.90;;;3.70;;
16822;SDS011;8528;49.976;11.858;2023-11-18T06:23:47;4.40;;;3.40;;
16822;SDS011;8528;49.976;11.858;2023-11-18T06:26:14;7.33;;;3.63;;
16822;SDS011;8528;49.976;11.858;2023-11-18T06:28:43;4.43;;;3.40;;
16822;SDS011;8528;49.976;11.858;2023-11-18T06:31:11;4.77;;;3.50;;
16822;SDS011;8528;49.976;11.858;2023-11-18T06:33:39;6.13;;;3.83;;
16822;SDS011;8528;49.976;11.858;2023-11-18T06:36:18;5.87;;;3.63;;
16822;SDS011;8528;49.976;11.858;2023-11-18T06:38:50;10.80;;;4.10;;
16822;SDS011;8528;49.976;11.858;2023-11-18T06:41:18;4.17;;;3.43;;
16822;SDS011;8528;49.976;11.858;2023-11-18T06:44:03;5.50;;;3.57;;
16822;SDS011;8528;49.976;11.858;2023-11-18T06:46:38;5.57;;;3.87;;
16822;SDS011;8528;49.976;11.858;2023-11-18T06:49:07;6.40;;;3.43;;
16822;SDS011;8528;49.976;11.858;2023-11-18T06:51:37;5.43;;;3.77;;
16822;SDS011;8528;49.976;11.858;2023-11-18T06:54:05;3.93;;;3.10;;
16822;SDS011;8528;49.976;11.858;2023-11-18T06:56:37;4.17;;;3.20;;
16822;SDS011;8528;49.976;11.858;2023-11-18T06:59:05;12.33;;;7.20;;
16822;SDS011;8528;49.976;11.858;2023-11-18T07:01:36;10.60;;;6.53;;
16822;SDS011;8528;49.976;11.858;2023-11-18T07:04:03;9.23;;;7.10;;
16822;SDS011;8528;49.976;11.858;2023-11-18T07:06:32;10.17;;;6.77;;
16822;SDS011;8528;49.976;11.858;2023-11-18T07:08:58;7.60;;;5.47;;
16822;SDS011;8528;49.976;11.858;2023-11-18T07:11:27;6.83;;;5.63;;
16822;SDS011;8528;49.976;11.858;2023-11-18T07:13:54;7.50;;;5.00;;
16822;SDS011;8528;49.976;11.858;2023-11-18T07:16:25;7.57;;;5.17;;
16822;SDS011;8528;49.976;11.858;2023-11-18T07:18:52;7.60;;;5.30;;
16822;SDS011;8528;49.976;11.858;2023-11-18T07:21:19;6.90;;;5.30;;
16822;SDS011;8528;49.976;11.858;2023-11-18T07:23:46;8.80;;;5.30;;
16822;SDS011;8528;49.976;11.858;2023-11-18T07:26:13;9.20;;;5.30;;
16822;SDS011;8528;49.976;11.858;2023-11-18T07:28:42;5.90;;;4.90;;
16822;SDS011;8528;49.976;11.858;2023-11-18T07:31:10;8.40;;;4.80;;
16822;SDS011;8528;49.976;11.858;2023-11-18T07:33:37;7.17;;;5.07;;
16822;SDS011;8528;49.976;11.858;2023-11-18T07:36:06;7.10;;;4.97;;
16822;SDS011;8528;49.976;11.858;2023-11-18T07:38:37;7.77;;;5.70;;
16822;SDS011;8528;49.976;11.858;2023-11-18T07:41:04;7.57;;;5.23;;
16822;SDS011;8528;49.976;11.858;2023-11-18T07:43:34;6.97;;;4.87;;
16822;SDS011;8528;49.976;11.858;2023-11-18T07:46:07;6.53;;;5.00;;
16822;SDS011;8528;49.976;11.858;2023-11-18T07:48:34;6.90;;;4.70;;
16822;SDS011;8528;49.976;11.858;2023-11-18T07:51:01;6.53;;;4.33;;
16822;SDS011;8528;49.976;11.858;2023-11-18T07:53:28;7.70;;;6.77;;
16822;SDS011;8528;49.976;11.858;2023-11-18T07:55:56;7.13;;;5.27;;
16822;SDS011;8528;49.976;11.858;2023-11-18T07:58:22;6.97;;;4.90;;
16822;SDS011;8528;49.976;11.858;2023-11-18T08:00:50;7.87;;;4.90;;
16822;SDS011;8528;49.976;11.858;2023-11-18T08:03:17;6.80;;;5.07;;
16822;SDS011;8528;49.976;11.858;2023-11-18T08:05:44;8.27;;;4.73;;
16822;SDS011;8528;49.976;11.858;2023-11-18T08:08:12;8.53;;;5.23;;
16822;SDS011;8528;49.976;11.858;2023-11-18T08:10:40;7.70;;;5.20;;
16822;SDS011;8528;49.976;11.858;2023-11-18T08:13:08;8.17;;;5.63;;
16822;SDS011;8528;49.976;11.858;2023-11-18T08:15:38;9.47;;;7.37;;
16822;SDS011;8528;49.976;11.858;2023-11-18T08:18:08;7.80;;;6.00;;
16822;SDS011;8528;49.976;11.858;2023-11-18T08:20:39;6.43;;;4.97;;
16822;SDS011;8528;49.976;11.858;2023-11-18T08:23:06;7.17;;;5.70;;
16822;SDS011;8528;49.976;11.858;2023-11-18T08:25:34;6.80;;;5.10;;
16822;SDS011;8528;49.976;11.858;2023-11-18T08:28:05;7.63;;;5.60;;
16822;SDS011;8528;49.976;11.858;2023-11-18T08:30:33;6.47;;;5.43;;
16822;SDS011;8528;49.976;11.858;2023-11-18T08:33:03;5.83;;;4.87;;
16822;SDS011;8528;49.976;11.858;2023-11-18T08:35:32;6.43;;;4.10;;
16822;SDS011;8528;49.976;11.858;2023-11-18T08:37:58;4.63;;;4.23;;
16822;SDS011;8528;49.976;11.858;2023-11-18T08:40:27;4.53;;;4.13;;
16822;SDS011;8528;49.976;11.858;2023-11-18T08:42:54;4.27;;;3.83;;
16822;SDS011;8528;49.976;11.858;2023-11-18T08:45:23;4.77;;;4.27;;
16822;SDS011;8528;49.976;11.858;2023-11-18T08:47:56;4.57;;;3.77;;
16822;SDS011;8528;49.976;11.858;2023-11-18T08:50:24;4.27;;;3.87;;
16822;SDS011;8528;49.976;11.858;2023-11-18T08:52:52;4.90;;;4.50;;
16822;SDS011;8528;49.976;11.858;2023-11-18T08:55:28;6.83;;;4.20;;
16822;SDS011;8528;49.976;11.858;2023-11-18T08:58:09;4.07;;;3.60;;
16822;SDS011;8528;49.976;11.858;2023-11-18T09:00:46;3.70;;;3.40;;
16822;SDS011;8528;49.976;11.858;2023-11-18T09:03:24;4.20;;;3.50;;
16822;SDS011;8528;49.976;11.858;2023-11-18T09:05:56;4.23;;;3.77;;
16822;SDS011;8528;49.976;11.858;2023-11-18T09:08:28;3.87;;;3.50;;
16822;SDS011;8528;49.976;11.858;2023-11-18T09:10:58;4.33;;;3.77;;
16822;SDS011;8528;49.976;11.858;2023-11-18T09:13:26;4.20;;;3.13;;
16822;SDS011;8528;49.976;11.858;2023-11-18T09:15:56;3.70;;;3.30;;
16822;SDS011;8528;49.976;11.858;2023-11-18T09:18:23;5.27;;;3.87;;
16822;SDS011;8528;49.976;11.858;2023-11-18T09:20:51;4.30;;;3.90;;
16822;SDS011;8528;49.976;11.858;2023-11-18T09:23:21;3.77;;;2.67;;
16822;SDS011;8528;49.976;11.858;2023-11-18T09:25:49;1.67;;;1.27;;
16822;SDS011;8528;49.976;11.858;2023-11-18T09:28:16;2.47;;;1.40;;
16822;SDS011;8528;49.976;11.858;2023-11-18T09:30:43;1.53;;;1.33;;
16822;SDS011;8528;49.976;11.858;2023-11-18T09:33:16;1.70;;;1.13;;
16822;SDS011;8528;49.976;11.858;2023-11-18T09:35:52;1.47;;;1.20;;
16822;SDS011;8528;49.976;11.858;2023-11-18T09:38:25;1.27;;;0.90;;
16822;SDS011;8528;49.976;11.858;2023-11-18T09:40:58;1.40;;;1.30;;
16822;SDS011;8528;49.976;11.858;2023-11-18T09:43:29;2.17;;;1.20;;
16822;SDS011;8528;49.976;11.858;2023-11-18T09:46:03;2.63;;;1.10;;
16822;SDS011;8528;49.976;11.858;2023-11-18T09:48:45;1.30;;;1.10;;
16822;SDS011;8528;49.976;11.858;2023-11-18T09:51:15;1.50;;;1.40;;
16822;SDS011;8528;49.976;11.858;2023-11-18T09:53:53;1.93;;;1.37;;
16822;SDS011;8528;49.976;11.858;2023-11-18T09:56:30;2.53;;;2.33;;
16822;SDS011;8528;49.976;11.858;2023-11-18T09:59:07;2.13;;;1.70;;
16822;SDS011;8528;49.976;11.858;2023-11-18T10:01:43;2.53;;;2.30;;
16822;SDS011;8528;49.976;11.858;2023-11-18T10:04:11;1.27;;;1.10;;
16822;SDS011;8528;49.976;11.858;2023-11-18T10:06:39;2.23;;;1.07;;
16822;SDS011;8528;49.976;11.858;2023-11-18T10:09:11;1.63;;;1.10;;
16822;SDS011;8528;49.976;11.858;2023-11-18T10:11:48;1.20;;;1.10;;
16822;SDS011;8528;49.976;11.858;2023-11-18T10:14:16;1.40;;;1.30;;
16822;SDS011;8528;49.976;11.858;2023-11-18T10:16:43;1.07;;;0.97;;
16822;SDS011;8528;49.976;11.858;2023-11-18T10:19:14;1.00;;;0.90;;
16822;SDS011;8528;49.976;11.858;2023-11-18T10:21:44;0.77;;;0.77;;
16822;SDS011;8528;49.976;11.858;2023-11-18T10:24:15;2.57;;;0.97;;
16822;SDS011;8528;49.976;11.858;2023-11-18T10:26:55;0.97;;;0.90;;
16822;SDS011;8528;49.976;11.858;2023-11-18T10:29:26;0.87;;;0.80;;
16822;SDS011;8528;49.976;11.858;2023-11-18T10:32:06;1.50;;;1.40;;
16822;SDS011;8528;49.976;11.858;2023-11-18T10:34:42;1.40;;;1.10;;
16822;SDS011;8528;49.976;11.858;2023-11-18T10:37:09;2.10;;;1.20;;
16822;SDS011;8528;49.976;11.858;2023-11-18T10:39:37;1.40;;;0.97;;
16822;SDS011;8528;49.976;11.858;2023-11-18T10:42:04;1.23;;;1.00;;
16822;SDS011;8528;49.976;11.858;2023-11-18T10:44:31;1.08;;;0.88;;
16822;SDS011;8528;49.976;11.858;2023-11-18T10:46:58;0.70;;;0.70;;
16822;SDS011;8528;49.976;11.858;2023-11-18T10:49:29;2.15;;;0.90;;
16822;SDS011;8528;49.976;11.858;2023-11-18T10:52:04;1.13;;;1.00;;
16822;SDS011;8528;49.976;11.858;2023-11-18T10:54:34;1.27;;;0.75;;
16822;SDS011;8528;49.976;11.858;2023-11-18T10:57:01;1.05;;;0.95;;
16822;SDS011;8528;49.976;11.858;2023-11-18T10:59:33;0.63;;;0.63;;
16822;SDS011;8528;49.976;11.858;2023-11-18T11:02:00;0.90;;;0.90;;
16822;SDS011;8528;49.976;11.858;2023-11-18T11:04:44;0.83;;;0.80;;
16822;SDS011;8528;49.976;11.858;2023-11-18T11:07:11;0.95;;;0.80;;
16822;SDS011;8528;49.976;11.858;2023-11-18T11:09:39;0.70;;;0.70;;
16822;SDS011;8528;49.976;11.858;2023-11-18T11:12:10;1.50;;;0.87;;
16822;SDS011;8528;49.976;11.858;2023-11-18T11:15:01;1.43;;;1.30;;
16822;SDS011;8528;49.976;11.858;2023-11-18T11:17:31;3.20;;;2.90;;
16822;SDS011;8528;49.976;11.858;2023-11-18T11:23:12;1.67;;;0.90;;
16822;SDS011;8528;49.976;11.858;2023-11-18T11:26:02;1.20;;;1.10;;
16822;SDS011;8528;49.976;11.858;2023-11-18T11:28:40;1.37;;;1.20;;
16822;SDS011;8528;49.976;11.858;2023-11-18T11:31:44;1.97;;;1.40;;
16822;SDS011;8528;49.976;11.858;2023-11-18T11:34:19;1.37;;;1.23;;
16822;SDS011;8528;49.976;11.858;2023-11-18T11:36:47;1.60;;;1.27;;
16822;SDS011;8528;49.976;11.858;2023-11-18T11:39:18;1.20;;;1.10;;
16822;SDS011;8528;49.976;11.858;2023-11-18T11:41:52;1.23;;;1.10;;
16822;SDS011;8528;49.976;11.858;2023-11-18T11:44:23;1.27;;;1.17;;
16822;SDS011;8528;49.976;11.858;2023-11-18T11:46:58;2.60;;;1.33;;
16822;SDS011;8528;49.976;11.858;2023-11-18T11:49:32;1.13;;;1.03;;
16822;SDS011;8528;49.976;11.858;2023-11-18T11:52:10;1.53;;;1.00;;
16822;SDS011;8528;49.976;11.858;2023-11-18T11:54:52;1.30;;;1.10;;
16822;SDS011;8528;49.976;11.858;2023-11-18T11:57:28;1.30;;;1.00;;
16822;SDS011;8528;49.976;11.858;2023-11-18T12:00:02;1.33;;;1.00;;
16822;SDS011;8528;49.976;11.858;2023-11-18T12:02:48;1.37;;;1.07;;
16822;SDS011;8528;49.976;11.858;2023-11-18T12:05:16;1.10;;;1.00;;
16822;SDS011;8528;49.976;11.858;2023-11-18T12:07:52;1.40;;;1.10;;
16822;SDS011;8528;49.976;11.858;2023-11-18T12:10:31;1.10;;;1.00;;
16822;SDS011;8528;49.976;11.858;2023-11-18T12:13:11;2.63;;;2.43;;
16822;SDS011;8528;49.976;11.858;2023-11-18T12:15:50;2.17;;;1.80;;
16822;SDS011;8528;49.976;11.858;2023-11-18T12:18:21;1.50;;;1.40;;
16822;SDS011;8528;49.976;11.858;2023-11-18T12:20:48;1.80;;;1.70;;
16822;SDS011;8528;49.976;11.858;2023-11-18T12:23:20;1.80;;;1.70;;
16822;SDS011;8528;49.976;11.858;2023-11-18T12:25:51;1.87;;;1.73;;
16822;SDS011;8528;49.976;11.858;2023-11-18T12:28:27;1.60;;;1.50;;
16822;SDS011;8528;49.976;11.858;2023-11-18T12:30:57;2.63;;;1.70;;
16822;SDS011;8528;49.976;11.858;2023-11-18T12:46:52;22.00;;;14.03;;
16822;SDS011;8528;49.976;11.858;2023-11-18T12:49:45;15.67;;;10.73;;
16822;SDS011;8528;49.976;11.858;2023-11-18T12:52:16;9.70;;;5.97;;
16822;SDS011;8528;49.976;11.858;2023-11-18T12:54:45;5.23;;;4.73;;
16822;SDS011;8528;49.976;11.858;2023-11-18T12:57:19;5.83;;;4.80;;
16822;SDS011;8528;49.976;11.858;2023-11-18T12:59:49;5.93;;;4.70;;
16822;SDS011;8528;49.976;11.858;2023-11-18T13:02:16;4.20;;;2.90;;
16822;SDS011;8528;49.976;11.858;2023-11-18T13:04:46;3.23;;;2.83;;
16822;SDS011;8528;49.976;11.858;2023-11-18T13:07:14;3.67;;;2.63;;
16822;SDS011;8528;49.976;11.858;2023-11-18T13:09:43;14.83;;;10.43;;
16822;SDS011;8528;49.976;11.858;2023-11-18T13:12:12;4.83;;;4.03;;
16822;SDS011;8528;49.976;11.858;2023-11-18T13:14:45;3.77;;;3.03;;
16822;SDS011;8528;49.976;11.858;2023-11-18T13:17:16;6.03;;;4.80;;
16822;SDS011;8528;49.976;11.858;2023-11-18T13:19:44;4.20;;;3.47;;
16822;SDS011;8528;49.976;11.858;2023-11-18T13:22:12;3.90;;;3.50;;
16822;SDS011;8528;49.976;11.858;2023-11-18T13:24:41;4.20;;;3.77;;
16822;SDS011;8528;49.976;11.858;2023-11-18T13:27:18;5.07;;;4.20;;
16822;SDS011;8528;49.976;11.858;2023-11-18T13:29:49;5.77;;;4.17;;
16822;SDS011;8528;49.976;11.858;2023-11-18T13:32:17;6.40;;;4.43;;
16822;SDS011;8528;49.976;11.858;2023-11-18T13:34:50;6.60;;;5.00;;
16822;SDS011;8528;49.976;11.858;2023-11-18T13:37:18;5.23;;;4.37;;
16822;SDS011;8528;49.976;11.858;2023-11-18T13:39:54;5.87;;;4.10;;
16822;SDS011;8528;49.976;11.858;2023-11-18T13:42:22;5.47;;;4.50;;
16822;SDS011;8528;49.976;11.858;2023-11-18T13:44:50;5.07;;;3.60;;
16822;SDS011;8528;49.976;11.858;2023-11-18T13:47:22;10.97;;;7.63;;
16822;SDS011;8528;49.976;11.858;2023-11-18T13:49:49;11.30;;;7.03;;
16822;SDS011;8528;49.976;11.858;2023-11-18T13:52:17;7.20;;;5.27;;
16822;SDS011;8528;49.976;11.858;2023-11-18T13:54:46;4.87;;;3.67;;
16822;SDS011;8528;49.976;11.858;2023-11-18T13:57:14;7.37;;;5.90;;
16822;SDS011;8528;49.976;11.858;2023-11-18T13:59:41;7.43;;;5.13;;
16822;SDS011;8528;49.976;11.858;2023-11-18T14:02:11;6.77;;;5.10;;
16822;SDS011;8528;49.976;11.858;2023-11-18T14:04:39;6.00;;;4.37;;
16822;SDS011;8528;49.976;11.858;2023-11-18T14:07:06;6.70;;;4.70;;
16822;SDS011;8528;49.976;11.858;2023-11-18T14:09:35;6.20;;;4.47;;
16822;SDS011;8528;49.976;11.858;2023-11-18T14:12:10;7.43;;;4.03;;
16822;SDS011;8528;49.976;11.858;2023-11-18T14:14:37;7.97;;;4.40;;
16822;SDS011;8528;49.976;11.858;2023-11-18T14:17:04;4.47;;;3.90;;
16822;SDS011;8528;49.976;11.858;2023-11-18T14:19:37;14.17;;;8.67;;
16822;SDS011;8528;49.976;11.858;2023-11-18T14:22:04;7.87;;;5.30;;
16822;SDS011;8528;49.976;11.858;2023-11-18T14:24:35;6.30;;;5.40;;
16822;SDS011;8528;49.976;11.858;2023-11-18T14:27:02;6.67;;;5.40;;
16822;SDS011;8528;49.976;11.858;2023-11-18T14:29:31;9.27;;;7.40;;
16822;SDS011;8528;49.976;11.858;2023-11-18T14:31:57;10.57;;;8.03;;
16822;SDS011;8528;49.976;11.858;2023-11-18T14:34:24;9.87;;;6.27;;
16822;SDS011;8528;49.976;11.858;2023-11-18T14:36:51;7.67;;;6.10;;
16822;SDS011;8528;49.976;11.858;2023-11-18T14:39:18;12.37;;;10.00;;
16822;SDS011;8528;49.976;11.858;2023-11-18T14:41:49;13.13;;;8.73;;
16822;SDS011;8528;49.976;11.858;2023-11-18T14:44:17;8.00;;;5.87;;
16822;SDS011;8528;49.976;11.858;2023-11-18T14:46:44;9.40;;;5.87;;
16822;SDS011;8528;49.976;11.858;2023-11-18T14:49:12;7.17;;;5.40;;
16822;SDS011;8528;49.976;11.858;2023-11-18T14:51:38;7.77;;;5.40;;
16822;SDS011;8528;49.976;11.858;2023-11-18T14:54:06;6.67;;;5.17;;
16822;SDS011;8528;49.976;11.858;2023-11-18T14:56:34;10.70;;;8.77;;
16822;SDS011;8528;49.976;11.858;2023-11-18T14:59:02;14.73;;;9.17;;
16822;SDS011;8528;49.976;11.858;2023-11-18T15:01:31;12.00;;;8.40;;
16822;SDS011;8528;49.976;11.858;2023-11-18T15:03:58;13.17;;;7.40;;
16822;SDS011;8528;49.976;11.858;2023-11-18T15:06:26;10.17;;;6.90;;
16822;SDS011;8528;49.976;11.858;2023-11-18T15:08:53;8.43;;;5.53;;
16822;SDS011;8528;49.976;11.858;2023-11-18T15:11:23;7.30;;;5.23;;
16822;SDS011;8528;49.976;11.858;2023-11-18T15:13:50;5.63;;;4.90;;
16822;SDS011;8528;49.976;11.858;2023-11-18T15:16:20;6.13;;;4.40;;
16822;SDS011;8528;49.976;11.858;2023-11-18T15:18:47;5.67;;;5.07;;
16822;SDS011;8528;49.976;11.858;2023-11-18T15:21:19;8.47;;;5.00;;
16822;SDS011;8528;49.976;11.858;2023-11-18T15:23:46;13.63;;;8.80;;
16822;SDS011;8528;49.976;11.858;2023-11-18T15:26:15;8.97;;;6.43;;